sensor_id;sensor_type;location;lat;lon;timestamp;P1;durP1;ratioP1;P2;durP2;ratioP2
16015;SDS011;8112;53.592;10.184;2023-06-01T00:03:53;11.33;;;5.47;;
16015;SDS011;8112;53.592;10.184;2023-06-01T00:08:55;11.93;;;5.80;;
16015;SDS011;8112;53.592;10.184;2023-06-01T00:13:58;12.43;;;5.90;;
16015;SDS011;8112;53.592;10.184;2023-06-01T00:19:00;11.87;;;5.77;;
16015;SDS011;8112;53.592;10.184;2023-06-01T00:24:03;12.07;;;6.03;;
16015;SDS011;8112;53.592;10.184;2023-06-01T00:29:07;9.97;;;5.10;;
16015;SDS011;8112;53.592;10.184;2023-06-01T00:34:08;11.27;;;5.20;;
16015;SDS011;8112;53.592;10.184;2023-06-01T00:39:10;13.27;;;6.07;;
16015;SDS011;8112;53.592;10.184;2023-06-01T00:44:13;14.83;;;5.47;;
16015;SDS011;8112;53.592;10.184;2023-06-01T00:49:15;9.03;;;5.20;;
16015;SDS011;8112;53.592;10.184;2023-06-01T00:54:17;10.87;;;5.53;;
16015;SDS011;8112;53.592;10.184;2023-06-01T00:59:21;12.57;;;5.37;;
16015;SDS011;8112;53.592;10.184;2023-06-01T01:04:23;12.47;;;5.40;;
16015;SDS011;8112;53.592;10.184;2023-06-01T01:09:28;14.80;;;6.87;;
16015;SDS011;8112;53.592;10.184;2023-06-01T01:14:39;7.73;;;6.80;;
16015;SDS011;8112;53.592;10.184;2023-06-01T01:19:51;14.43;;;7.67;;
16015;SDS011;8112;53.592;10.184;2023-06-01T01:25:01;13.70;;;7.30;;
16015;SDS011;8112;53.592;10.184;2023-06-01T01:30:17;15.93;;;8.83;;
16015;SDS011;8112;53.592;10.184;2023-06-01T01:35:22;13.60;;;8.20;;
16015;SDS011;8112;53.592;10.184;2023-06-01T01:40:24;12.30;;;7.90;;
16015;SDS011;8112;53.592;10.184;2023-06-01T01:45:27;12.23;;;6.63;;
16015;SDS011;8112;53.592;10.184;2023-06-01T01:50:36;11.70;;;8.07;;
16015;SDS011;8112;53.592;10.184;2023-06-01T01:55:40;13.17;;;8.77;;
16015;SDS011;8112;53.592;10.184;2023-06-01T02:00:44;12.37;;;9.00;;
16015;SDS011;8112;53.592;10.184;2023-06-01T02:05:48;13.70;;;9.67;;
16015;SDS011;8112;53.592;10.184;2023-06-01T02:10:51;15.43;;;10.17;;
16015;SDS011;8112;53.592;10.184;2023-06-01T02:15:54;16.80;;;9.60;;
16015;SDS011;8112;53.592;10.184;2023-06-01T02:20:56;12.87;;;9.53;;
16015;SDS011;8112;53.592;10.184;2023-06-01T02:25:57;17.60;;;8.37;;
16015;SDS011;8112;53.592;10.184;2023-06-01T02:31:00;11.93;;;7.10;;
16015;SDS011;8112;53.592;10.184;2023-06-01T02:36:02;11.27;;;7.80;;
16015;SDS011;8112;53.592;10.184;2023-06-01T02:41:06;11.23;;;7.77;;
16015;SDS011;8112;53.592;10.184;2023-06-01T02:46:09;14.97;;;8.47;;
16015;SDS011;8112;53.592;10.184;2023-06-01T02:51:13;15.37;;;8.37;;
16015;SDS011;8112;53.592;10.184;2023-06-01T02:56:18;18.43;;;9.50;;
16015;SDS011;8112;53.592;10.184;2023-06-01T03:01:44;13.40;;;9.30;;
16015;SDS011;8112;53.592;10.184;2023-06-01T03:06:46;15.53;;;8.80;;
16015;SDS011;8112;53.592;10.184;2023-06-01T03:11:55;11.47;;;8.03;;
16015;SDS011;8112;53.592;10.184;2023-06-01T03:16:58;16.93;;;9.27;;
16015;SDS011;8112;53.592;10.184;2023-06-01T03:22:00;12.93;;;8.00;;
16015;SDS011;8112;53.592;10.184;2023-06-01T03:27:02;17.27;;;10.07;;
16015;SDS011;8112;53.592;10.184;2023-06-01T03:32:09;12.67;;;8.07;;
16015;SDS011;8112;53.592;10.184;2023-06-01T03:37:12;14.40;;;8.53;;
16015;SDS011;8112;53.592;10.184;2023-06-01T03:42:13;11.37;;;7.53;;
16015;SDS011;8112;53.592;10.184;2023-06-01T03:47:16;16.30;;;7.37;;
16015;SDS011;8112;53.592;10.184;2023-06-01T03:52:19;12.13;;;7.73;;
16015;SDS011;8112;53.592;10.184;2023-06-01T03:57:21;19.53;;;7.97;;
16015;SDS011;8112;53.592;10.184;2023-06-01T04:02:24;13.27;;;7.67;;
16015;SDS011;8112;53.592;10.184;2023-06-01T04:07:26;12.20;;;8.00;;
16015;SDS011;8112;53.592;10.184;2023-06-01T04:12:28;10.93;;;7.40;;
16015;SDS011;8112;53.592;10.184;2023-06-01T04:17:32;18.27;;;9.37;;
16015;SDS011;8112;53.592;10.184;2023-06-01T04:22:37;16.17;;;8.80;;
16015;SDS011;8112;53.592;10.184;2023-06-01T04:27:42;12.77;;;8.10;;
16015;SDS011;8112;53.592;10.184;2023-06-01T04:32:47;13.17;;;8.47;;
16015;SDS011;8112;53.592;10.184;2023-06-01T04:37:50;17.67;;;7.63;;
16015;SDS011;8112;53.592;10.184;2023-06-01T04:42:52;14.87;;;6.93;;
16015;SDS011;8112;53.592;10.184;2023-06-01T04:47:59;13.83;;;7.10;;
16015;SDS011;8112;53.592;10.184;2023-06-01T04:53:13;14.47;;;6.77;;
16015;SDS011;8112;53.592;10.184;2023-06-01T04:58:15;13.03;;;6.80;;
16015;SDS011;8112;53.592;10.184;2023-06-01T05:03:19;8.93;;;6.37;;
16015;SDS011;8112;53.592;10.184;2023-06-01T05:08:20;14.30;;;7.20;;
16015;SDS011;8112;53.592;10.184;2023-06-01T05:13:22;12.20;;;7.20;;
16015;SDS011;8112;53.592;10.184;2023-06-01T05:18:25;12.93;;;7.07;;
16015;SDS011;8112;53.592;10.184;2023-06-01T05:23:27;13.23;;;7.07;;
16015;SDS011;8112;53.592;10.184;2023-06-01T05:28:29;14.40;;;6.97;;
16015;SDS011;8112;53.592;10.184;2023-06-01T05:33:33;13.77;;;6.57;;
16015;SDS011;8112;53.592;10.184;2023-06-01T05:38:34;14.87;;;6.50;;
16015;SDS011;8112;53.592;10.184;2023-06-01T05:43:37;12.30;;;7.03;;
16015;SDS011;8112;53.592;10.184;2023-06-01T05:48:41;17.27;;;7.47;;
16015;SDS011;8112;53.592;10.184;2023-06-01T05:53:45;9.67;;;5.47;;
16015;SDS011;8112;53.592;10.184;2023-06-01T05:58:47;13.40;;;5.33;;
16015;SDS011;8112;53.592;10.184;2023-06-01T06:03:54;11.87;;;5.07;;
16015;SDS011;8112;53.592;10.184;2023-06-01T06:08:57;11.63;;;5.13;;
16015;SDS011;8112;53.592;10.184;2023-06-01T06:13:59;12.73;;;4.80;;
16015;SDS011;8112;53.592;10.184;2023-06-01T06:19:02;13.07;;;5.83;;
16015;SDS011;8112;53.592;10.184;2023-06-01T06:24:03;14.57;;;4.90;;
16015;SDS011;8112;53.592;10.184;2023-06-01T06:29:06;9.83;;;3.97;;
16015;SDS011;8112;53.592;10.184;2023-06-01T06:34:09;10.40;;;4.90;;
16015;SDS011;8112;53.592;10.184;2023-06-01T06:39:13;12.40;;;4.57;;
16015;SDS011;8112;53.592;10.184;2023-06-01T06:44:15;15.13;;;4.77;;
16015;SDS011;8112;53.592;10.184;2023-06-01T06:49:18;10.83;;;4.47;;
16015;SDS011;8112;53.592;10.184;2023-06-01T06:54:20;11.67;;;4.23;;
16015;SDS011;8112;53.592;10.184;2023-06-01T06:59:23;11.50;;;4.53;;
16015;SDS011;8112;53.592;10.184;2023-06-01T07:04:26;9.03;;;3.80;;
16015;SDS011;8112;53.592;10.184;2023-06-01T07:09:28;12.43;;;4.13;;
16015;SDS011;8112;53.592;10.184;2023-06-01T07:14:30;11.23;;;3.90;;
16015;SDS011;8112;53.592;10.184;2023-06-01T07:19:33;11.43;;;4.00;;
16015;SDS011;8112;53.592;10.184;2023-06-01T07:24:35;11.70;;;4.10;;
16015;SDS011;8112;53.592;10.184;2023-06-01T07:29:36;7.90;;;3.37;;
16015;SDS011;8112;53.592;10.184;2023-06-01T07:34:39;8.93;;;3.50;;
16015;SDS011;8112;53.592;10.184;2023-06-01T07:39:41;11.03;;;3.60;;
16015;SDS011;8112;53.592;10.184;2023-06-01T07:44:43;10.27;;;3.00;;
16015;SDS011;8112;53.592;10.184;2023-06-01T07:49:47;11.57;;;3.20;;
16015;SDS011;8112;53.592;10.184;2023-06-01T07:54:49;6.27;;;2.93;;
16015;SDS011;8112;53.592;10.184;2023-06-01T07:59:51;7.90;;;3.00;;
16015;SDS011;8112;53.592;10.184;2023-06-01T08:04:54;10.10;;;3.20;;
16015;SDS011;8112;53.592;10.184;2023-06-01T08:09:57;7.53;;;3.13;;
16015;SDS011;8112;53.592;10.184;2023-06-01T08:14:59;8.47;;;2.97;;
16015;SDS011;8112;53.592;10.184;2023-06-01T08:20:02;7.90;;;2.93;;
16015;SDS011;8112;53.592;10.184;2023-06-01T08:25:08;11.77;;;3.67;;
16015;SDS011;8112;53.592;10.184;2023-06-01T08:30:10;8.87;;;3.40;;
16015;SDS011;8112;53.592;10.184;2023-06-01T08:35:13;8.97;;;3.80;;
16015;SDS011;8112;53.592;10.184;2023-06-01T08:40:15;8.53;;;3.60;;
16015;SDS011;8112;53.592;10.184;2023-06-01T08:45:17;8.07;;;3.50;;
16015;SDS011;8112;53.592;10.184;2023-06-01T08:50:21;17.70;;;3.90;;
16015;SDS011;8112;53.592;10.184;2023-06-01T08:55:23;12.70;;;4.27;;
16015;SDS011;8112;53.592;10.184;2023-06-01T09:00:25;9.10;;;3.70;;
16015;SDS011;8112;53.592;10.184;2023-06-01T09:05:30;8.50;;;3.63;;
16015;SDS011;8112;53.592;10.184;2023-06-01T09:10:31;12.27;;;3.80;;
16015;SDS011;8112;53.592;10.184;2023-06-01T09:15:33;10.00;;;3.93;;
16015;SDS011;8112;53.592;10.184;2023-06-01T09:20:36;6.17;;;3.00;;
16015;SDS011;8112;53.592;10.184;2023-06-01T09:25:39;8.93;;;3.83;;
16015;SDS011;8112;53.592;10.184;2023-06-01T09:30:41;8.70;;;3.60;;
16015;SDS011;8112;53.592;10.184;2023-06-01T09:35:47;9.57;;;2.77;;
16015;SDS011;8112;53.592;10.184;2023-06-01T09:40:56;9.10;;;2.93;;
16015;SDS011;8112;53.592;10.184;2023-06-01T09:46:03;7.67;;;3.23;;
16015;SDS011;8112;53.592;10.184;2023-06-01T09:51:19;6.47;;;3.40;;
16015;SDS011;8112;53.592;10.184;2023-06-01T09:56:22;6.83;;;3.43;;
16015;SDS011;8112;53.592;10.184;2023-06-01T10:01:27;9.90;;;3.47;;
16015;SDS011;8112;53.592;10.184;2023-06-01T10:06:33;10.37;;;2.90;;
16015;SDS011;8112;53.592;10.184;2023-06-01T10:11:38;8.87;;;3.07;;
16015;SDS011;8112;53.592;10.184;2023-06-01T10:16:40;9.47;;;4.13;;
16015;SDS011;8112;53.592;10.184;2023-06-01T10:21:44;11.83;;;3.33;;
16015;SDS011;8112;53.592;10.184;2023-06-01T10:26:49;10.70;;;3.23;;
16015;SDS011;8112;53.592;10.184;2023-06-01T10:32:05;7.07;;;2.80;;
16015;SDS011;8112;53.592;10.184;2023-06-01T10:37:44;9.13;;;3.43;;
16015;SDS011;8112;53.592;10.184;2023-06-01T10:43:41;10.23;;;2.70;;
16015;SDS011;8112;53.592;10.184;2023-06-01T10:48:52;9.67;;;3.13;;
16015;SDS011;8112;53.592;10.184;2023-06-01T10:53:59;7.70;;;3.03;;
16015;SDS011;8112;53.592;10.184;2023-06-01T10:59:28;9.77;;;3.43;;
16015;SDS011;8112;53.592;10.184;2023-06-01T11:04:35;7.53;;;3.30;;
16015;SDS011;8112;53.592;10.184;2023-06-01T11:09:44;8.73;;;3.47;;
16015;SDS011;8112;53.592;10.184;2023-06-01T11:20:10;11.23;;;3.40;;
16015;SDS011;8112;53.592;10.184;2023-06-01T11:25:14;7.40;;;3.27;;
16015;SDS011;8112;53.592;10.184;2023-06-01T11:30:19;9.10;;;3.03;;
16015;SDS011;8112;53.592;10.184;2023-06-01T11:35:22;9.03;;;3.10;;
16015;SDS011;8112;53.592;10.184;2023-06-01T11:40:28;10.07;;;3.27;;
16015;SDS011;8112;53.592;10.184;2023-06-01T11:45:30;11.73;;;3.03;;
16015;SDS011;8112;53.592;10.184;2023-06-01T11:50:31;7.30;;;2.90;;
16015;SDS011;8112;53.592;10.184;2023-06-01T11:55:36;11.17;;;3.43;;
16015;SDS011;8112;53.592;10.184;2023-06-01T12:00:49;8.73;;;3.07;;
16015;SDS011;8112;53.592;10.184;2023-06-01T12:05:52;7.50;;;2.67;;
16015;SDS011;8112;53.592;10.184;2023-06-01T12:10:55;7.93;;;3.13;;
16015;SDS011;8112;53.592;10.184;2023-06-01T12:15:57;6.47;;;2.70;;
16015;SDS011;8112;53.592;10.184;2023-06-01T12:20:58;8.03;;;2.80;;
16015;SDS011;8112;53.592;10.184;2023-06-01T12:26:02;9.77;;;2.53;;
16015;SDS011;8112;53.592;10.184;2023-06-01T12:31:08;8.57;;;2.53;;
16015;SDS011;8112;53.592;10.184;2023-06-01T12:36:10;8.47;;;2.17;;
16015;SDS011;8112;53.592;10.184;2023-06-01T12:41:30;6.87;;;2.23;;
16015;SDS011;8112;53.592;10.184;2023-06-01T12:46:32;10.30;;;2.43;;
16015;SDS011;8112;53.592;10.184;2023-06-01T12:51:35;8.60;;;2.00;;
16015;SDS011;8112;53.592;10.184;2023-06-01T12:56:38;17.37;;;6.50;;
16015;SDS011;8112;53.592;10.184;2023-06-01T13:01:40;14.03;;;2.87;;
16015;SDS011;8112;53.592;10.184;2023-06-01T13:06:42;8.17;;;2.17;;
16015;SDS011;8112;53.592;10.184;2023-06-01T13:11:46;9.93;;;2.00;;
16015;SDS011;8112;53.592;10.184;2023-06-01T13:16:47;10.17;;;2.60;;
16015;SDS011;8112;53.592;10.184;2023-06-01T13:21:49;11.70;;;2.53;;
16015;SDS011;8112;53.592;10.184;2023-06-01T13:26:52;7.90;;;2.17;;
16015;SDS011;8112;53.592;10.184;2023-06-01T13:31:54;10.33;;;2.33;;
16015;SDS011;8112;53.592;10.184;2023-06-01T13:36:55;9.60;;;2.20;;
16015;SDS011;8112;53.592;10.184;2023-06-01T13:41:59;10.30;;;2.67;;
16015;SDS011;8112;53.592;10.184;2023-06-01T13:47:00;6.43;;;2.13;;
16015;SDS011;8112;53.592;10.184;2023-06-01T13:52:03;6.63;;;2.00;;
16015;SDS011;8112;53.592;10.184;2023-06-01T13:57:06;10.93;;;2.63;;
16015;SDS011;8112;53.592;10.184;2023-06-01T14:02:08;11.27;;;2.50;;
16015;SDS011;8112;53.592;10.184;2023-06-01T14:07:11;10.00;;;2.30;;
16015;SDS011;8112;53.592;10.184;2023-06-01T14:12:14;8.20;;;2.60;;
16015;SDS011;8112;53.592;10.184;2023-06-01T14:17:16;15.07;;;3.17;;
16015;SDS011;8112;53.592;10.184;2023-06-01T14:22:18;8.53;;;2.60;;
16015;SDS011;8112;53.592;10.184;2023-06-01T14:27:21;11.40;;;2.70;;
16015;SDS011;8112;53.592;10.184;2023-06-01T14:32:23;13.47;;;2.47;;
16015;SDS011;8112;53.592;10.184;2023-06-01T14:37:25;8.87;;;2.50;;
16015;SDS011;8112;53.592;10.184;2023-06-01T14:42:28;12.33;;;2.67;;
16015;SDS011;8112;53.592;10.184;2023-06-01T14:47:30;11.87;;;2.60;;
16015;SDS011;8112;53.592;10.184;2023-06-01T14:52:31;10.37;;;2.77;;
16015;SDS011;8112;53.592;10.184;2023-06-01T14:57:35;7.13;;;2.30;;
16015;SDS011;8112;53.592;10.184;2023-06-01T15:02:36;16.17;;;3.30;;
16015;SDS011;8112;53.592;10.184;2023-06-01T15:07:38;8.70;;;2.50;;
16015;SDS011;8112;53.592;10.184;2023-06-01T15:12:41;12.93;;;3.00;;
16015;SDS011;8112;53.592;10.184;2023-06-01T15:17:43;11.57;;;2.30;;
16015;SDS011;8112;53.592;10.184;2023-06-01T15:22:46;9.90;;;2.90;;
16015;SDS011;8112;53.592;10.184;2023-06-01T15:27:49;14.97;;;3.07;;
16015;SDS011;8112;53.592;10.184;2023-06-01T15:32:51;11.73;;;3.30;;
16015;SDS011;8112;53.592;10.184;2023-06-01T15:37:52;16.33;;;4.33;;
16015;SDS011;8112;53.592;10.184;2023-06-01T15:42:56;16.03;;;3.00;;
16015;SDS011;8112;53.592;10.184;2023-06-01T15:47:57;9.90;;;3.03;;
16015;SDS011;8112;53.592;10.184;2023-06-01T15:52:59;7.77;;;2.77;;
16015;SDS011;8112;53.592;10.184;2023-06-01T15:58:02;13.13;;;3.63;;
16015;SDS011;8112;53.592;10.184;2023-06-01T16:03:04;17.27;;;3.37;;
16015;SDS011;8112;53.592;10.184;2023-06-01T16:08:06;14.60;;;2.90;;
16015;SDS011;8112;53.592;10.184;2023-06-01T16:13:09;10.17;;;2.97;;
16015;SDS011;8112;53.592;10.184;2023-06-01T16:18:11;20.37;;;3.37;;
16015;SDS011;8112;53.592;10.184;2023-06-01T16:23:12;14.60;;;3.20;;
16015;SDS011;8112;53.592;10.184;2023-06-01T16:28:15;13.77;;;3.20;;
16015;SDS011;8112;53.592;10.184;2023-06-01T16:33:17;17.20;;;4.03;;
16015;SDS011;8112;53.592;10.184;2023-06-01T16:38:19;13.83;;;3.30;;
16015;SDS011;8112;53.592;10.184;2023-06-01T16:43:22;10.57;;;3.03;;
16015;SDS011;8112;53.592;10.184;2023-06-01T16:48:23;10.30;;;2.67;;
16015;SDS011;8112;53.592;10.184;2023-06-01T16:53:25;7.63;;;2.60;;
16015;SDS011;8112;53.592;10.184;2023-06-01T16:58:28;20.27;;;3.27;;
16015;SDS011;8112;53.592;10.184;2023-06-01T17:03:30;14.80;;;3.53;;
16015;SDS011;8112;53.592;10.184;2023-06-01T17:08:31;10.57;;;3.00;;
16015;SDS011;8112;53.592;10.184;2023-06-01T17:13:35;19.20;;;2.90;;
16015;SDS011;8112;53.592;10.184;2023-06-01T17:18:36;18.30;;;3.10;;
16015;SDS011;8112;53.592;10.184;2023-06-01T17:23:38;15.10;;;3.50;;
16015;SDS011;8112;53.592;10.184;2023-06-01T17:28:42;20.83;;;4.33;;
16015;SDS011;8112;53.592;10.184;2023-06-01T17:33:43;18.63;;;4.60;;
16015;SDS011;8112;53.592;10.184;2023-06-01T17:38:45;16.33;;;3.60;;
16015;SDS011;8112;53.592;10.184;2023-06-01T17:43:49;16.27;;;3.87;;
16015;SDS011;8112;53.592;10.184;2023-06-01T17:48:50;14.50;;;3.70;;
16015;SDS011;8112;53.592;10.184;2023-06-01T17:53:52;11.90;;;3.30;;
16015;SDS011;8112;53.592;10.184;2023-06-01T17:58:55;12.17;;;3.17;;
16015;SDS011;8112;53.592;10.184;2023-06-01T18:03:57;16.07;;;3.90;;
16015;SDS011;8112;53.592;10.184;2023-06-01T18:08:59;19.00;;;3.30;;
16015;SDS011;8112;53.592;10.184;2023-06-01T18:14:02;15.10;;;3.67;;
16015;SDS011;8112;53.592;10.184;2023-06-01T18:19:03;17.03;;;4.30;;
16015;SDS011;8112;53.592;10.184;2023-06-01T18:24:05;14.23;;;3.60;;
16015;SDS011;8112;53.592;10.184;2023-06-01T18:29:09;12.83;;;3.07;;
16015;SDS011;8112;53.592;10.184;2023-06-01T18:34:10;15.80;;;3.60;;
16015;SDS011;8112;53.592;10.184;2023-06-01T18:39:12;14.23;;;3.00;;
16015;SDS011;8112;53.592;10.184;2023-06-01T18:44:15;19.17;;;3.73;;
16015;SDS011;8112;53.592;10.184;2023-06-01T18:49:17;13.90;;;3.43;;
16015;SDS011;8112;53.592;10.184;2023-06-01T18:54:19;14.30;;;3.33;;
16015;SDS011;8112;53.592;10.184;2023-06-01T18:59:22;17.20;;;3.97;;
16015;SDS011;8112;53.592;10.184;2023-06-01T19:04:24;12.63;;;3.40;;
16015;SDS011;8112;53.592;10.184;2023-06-01T19:09:27;16.80;;;3.83;;
16015;SDS011;8112;53.592;10.184;2023-06-01T19:14:30;16.40;;;4.13;;
16015;SDS011;8112;53.592;10.184;2023-06-01T19:19:32;8.23;;;3.40;;
16015;SDS011;8112;53.592;10.184;2023-06-01T19:24:34;14.63;;;3.70;;
16015;SDS011;8112;53.592;10.184;2023-06-01T19:29:38;12.77;;;3.83;;
16015;SDS011;8112;53.592;10.184;2023-06-01T19:34:41;13.73;;;3.40;;
16015;SDS011;8112;53.592;10.184;2023-06-01T19:39:43;15.33;;;4.30;;
16015;SDS011;8112;53.592;10.184;2023-06-01T19:44:48;18.43;;;3.67;;
16015;SDS011;8112;53.592;10.184;2023-06-01T19:49:50;15.20;;;4.20;;
16015;SDS011;8112;53.592;10.184;2023-06-01T19:54:53;13.40;;;3.13;;
16015;SDS011;8112;53.592;10.184;2023-06-01T19:59:57;13.80;;;4.07;;
16015;SDS011;8112;53.592;10.184;2023-06-01T20:04:59;13.37;;;4.03;;
16015;SDS011;8112;53.592;10.184;2023-06-01T20:10:01;20.17;;;4.60;;
16015;SDS011;8112;53.592;10.184;2023-06-01T20:15:04;14.17;;;4.20;;
16015;SDS011;8112;53.592;10.184;2023-06-01T20:20:07;20.87;;;4.13;;
16015;SDS011;8112;53.592;10.184;2023-06-01T20:25:09;18.57;;;4.07;;
16015;SDS011;8112;53.592;10.184;2023-06-01T20:30:29;15.13;;;4.03;;
16015;SDS011;8112;53.592;10.184;2023-06-01T20:35:54;19.27;;;4.23;;
16015;SDS011;8112;53.592;10.184;2023-06-01T20:41:04;19.50;;;4.53;;
16015;SDS011;8112;53.592;10.184;2023-06-01T20:46:11;16.40;;;4.33;;
16015;SDS011;8112;53.592;10.184;2023-06-01T20:51:15;14.43;;;4.20;;
16015;SDS011;8112;53.592;10.184;2023-06-01T20:56:20;17.10;;;4.27;;
16015;SDS011;8112;53.592;10.184;2023-06-01T21:01:29;14.57;;;4.27;;
16015;SDS011;8112;53.592;10.184;2023-06-01T21:06:31;21.77;;;5.03;;
16015;SDS011;8112;53.592;10.184;2023-06-01T21:11:32;12.10;;;4.10;;
16015;SDS011;8112;53.592;10.184;2023-06-01T21:16:36;15.80;;;4.23;;
16015;SDS011;8112;53.592;10.184;2023-06-01T21:21:38;21.17;;;4.90;;
16015;SDS011;8112;53.592;10.184;2023-06-01T21:26:41;16.47;;;4.80;;
16015;SDS011;8112;53.592;10.184;2023-06-01T21:31:44;15.30;;;4.30;;
16015;SDS011;8112;53.592;10.184;2023-06-01T21:36:46;14.43;;;4.47;;
16015;SDS011;8112;53.592;10.184;2023-06-01T21:41:47;16.80;;;4.37;;
16015;SDS011;8112;53.592;10.184;2023-06-01T21:46:50;14.67;;;4.63;;
16015;SDS011;8112;53.592;10.184;2023-06-01T21:51:52;13.53;;;5.33;;
16015;SDS011;8112;53.592;10.184;2023-06-01T21:56:54;18.10;;;4.60;;
16015;SDS011;8112;53.592;10.184;2023-06-01T22:01:57;13.43;;;4.97;;
16015;SDS011;8112;53.592;10.184;2023-06-01T22:06:59;18.87;;;4.67;;
16015;SDS011;8112;53.592;10.184;2023-06-01T22:12:01;19.07;;;5.03;;
16015;SDS011;8112;53.592;10.184;2023-06-01T22:17:04;16.43;;;5.13;;
16015;SDS011;8112;53.592;10.184;2023-06-01T22:22:06;18.73;;;5.67;;
16015;SDS011;8112;53.592;10.184;2023-06-01T22:27:08;26.40;;;5.20;;
16015;SDS011;8112;53.592;10.184;2023-06-01T22:32:11;14.67;;;4.53;;
16015;SDS011;8112;53.592;10.184;2023-06-01T22:37:13;20.77;;;5.43;;
16015;SDS011;8112;53.592;10.184;2023-06-01T22:42:15;17.67;;;5.30;;
16015;SDS011;8112;53.592;10.184;2023-06-01T22:47:19;15.93;;;5.10;;
16015;SDS011;8112;53.592;10.184;2023-06-01T22:52:20;11.70;;;4.40;;
16015;SDS011;8112;53.592;10.184;2023-06-01T22:57:22;26.90;;;5.20;;
16015;SDS011;8112;53.592;10.184;2023-06-01T23:02:25;23.57;;;6.37;;
16015;SDS011;8112;53.592;10.184;2023-06-01T23:07:27;19.37;;;5.87;;
16015;SDS011;8112;53.592;10.184;2023-06-01T23:12:31;19.20;;;5.87;;
16015;SDS011;8112;53.592;10.184;2023-06-01T23:17:36;22.27;;;5.67;;
16015;SDS011;8112;53.592;10.184;2023-06-01T23:22:40;22.50;;;5.00;;
16015;SDS011;8112;53.592;10.184;2023-06-01T23:27:43;19.43;;;4.87;;
16015;SDS011;8112;53.592;10.184;2023-06-01T23:32:46;19.63;;;5.03;;
16015;SDS011;8112;53.592;10.184;2023-06-01T23:37:48;20.37;;;4.37;;
16015;SDS011;8112;53.592;10.184;2023-06-01T23:42:50;22.23;;;5.30;;
16015;SDS011;8112;53.592;10.184;2023-06-01T23:47:54;19.77;;;5.50;;
16015;SDS011;8112;53.592;10.184;2023-06-01T23:52:55;19.57;;;5.17;;
16015;SDS011;8112;53.592;10.184;2023-06-01T23:57:57;20.37;;;5.00;;
